Tybee Island, Georgia
Current Conditions -  °F | °C
As of 6:55 AM on Sunday 23 Nov 2014 (Local Time) from KHXD Reporting Station
Heavy Rain Heavy Rain  
Wind Chill: 61°   Ceiling: 200
Heat Index: 61°   Visibility: 2mi
Dew Point: 61°   Wind: 9mph
Humidity: 100%   Direction: 40°NE
Pressure: 30.09"   Gusts: 16mph
Location:  32°N, 80.85°W
Report Text: KHXD 231155Z 04008G14KT 2SM +RA OVC002 16/16 A3009
Loading
Personal Weather Stations






























Interactive Weather Map New forecast layout! Learn more

10-Day Weather Forecast

Advertisements
Track Severe Weather on mobile